createdAt,value
2016-05-09T00:00:33.840Z,64.65
2016-05-09T00:01:33.859Z,64.47
2016-05-09T00:02:33.738Z,64.56
2016-05-09T00:03:33.927Z,65.04
2016-05-09T00:04:33.930Z,64.65
2016-05-09T00:05:33.948Z,64.47
2016-05-09T00:06:33.967Z,64.59
2016-05-09T00:07:34.001Z,64.37
2016-05-09T00:08:34.020Z,64.65
2016-05-09T00:09:33.881Z,64.56
2016-05-09T00:10:34.071Z,64.85
2016-05-09T00:11:48.261Z,65.14
2016-05-09T00:12:33.951Z,65.23
2016-05-09T00:13:33.970Z,65.04
2016-05-09T00:14:34.161Z,64.56
2016-05-09T00:15:34.178Z,64.85
2016-05-09T00:16:34.197Z,64.56
2016-05-09T00:17:34.214Z,65.23
2016-05-09T00:19:34.252Z,65.23
2016-05-09T00:20:34.286Z,65.14
2016-05-09T00:21:34.305Z,65.9
2016-05-09T00:22:34.322Z,65.42
2016-05-09T00:23:34.341Z,66.19
2016-05-09T00:24:34.374Z,66.56
2016-05-09T00:25:34.393Z,66.56
2016-05-09T00:26:34.410Z,66.76
2016-05-09T00:27:48.617Z,66.38
2016-05-09T00:28:34.463Z,66.38
2016-05-09T00:29:34.482Z,66.95
2016-05-09T00:30:34.500Z,66.56
2016-05-09T00:31:34.518Z,66.95
2016-05-09T00:32:34.552Z,67.05
2016-05-09T00:34:34.589Z,66.95
2016-05-09T00:35:34.607Z,66.95
2016-05-09T00:36:34.641Z,67.71
2016-05-09T00:37:34.675Z,67.05
2016-05-09T00:38:34.678Z,67.05
2016-05-09T00:39:34.696Z,66.47
2016-05-09T00:40:34.731Z,66.76
2016-05-09T00:41:34.764Z,66.66
2016-05-09T00:42:34.767Z,66.38
2016-05-09T00:43:48.973Z,66
2016-05-09T00:44:34.804Z,66.28
2016-05-09T00:45:34.836Z,66.56
2016-05-09T00:46:34.856Z,65.61
2016-05-09T00:47:34.874Z,66
2016-05-09T00:48:34.892Z,65.61
2016-05-09T00:50:34.945Z,66
2016-05-09T00:51:34.963Z,65.23
2016-05-09T00:52:34.825Z,65.42
2016-05-09T00:54:35.033Z,65.8
2016-05-09T00:55:35.052Z,66
2016-05-09T00:56:35.069Z,66.09
2016-05-09T00:57:35.104Z,65.8
2016-05-09T00:58:35.388Z,65.23
2016-05-09T00:59:49.328Z,65.9
2016-05-09T01:00:35.159Z,65.9
2016-05-09T01:01:35.037Z,65.8
2016-05-09T01:02:35.211Z,66.66
2016-05-09T01:03:35.229Z,67.05
2016-05-09T01:04:35.263Z,67.33
2016-05-09T01:05:35.266Z,67.52
2016-05-09T01:06:35.315Z,67.43
2016-05-09T01:08:35.336Z,67.71
2016-05-09T01:09:35.355Z,67.71
2016-05-09T01:10:35.390Z,67.71
2016-05-09T01:11:35.407Z,67.62
2016-05-09T01:12:35.425Z,68.1
2016-05-09T01:13:36.397Z,67.91
2016-05-09T01:14:49.649Z,68
2016-05-09T01:15:35.496Z,67.52
2016-05-09T01:16:35.515Z,67.81
2016-05-09T01:17:35.548Z,67.71
2016-05-09T01:18:35.567Z,67.71
2016-05-09T01:19:35.585Z,68.29
2016-05-09T01:20:35.603Z,68.29
2016-05-09T01:21:35.621Z,67.52
2016-05-09T01:23:35.517Z,67.52
2016-05-09T01:24:35.692Z,67.05
2016-05-09T01:25:35.710Z,67.05
2016-05-09T01:26:35.744Z,66.85
2016-05-09T01:27:35.763Z,66.66
2016-05-09T01:28:35.781Z,66.85
2016-05-09T01:29:35.799Z,67.14
2016-05-09T01:30:35.818Z,66.95
2016-05-09T01:31:35.851Z,67.14
2016-05-09T01:32:35.870Z,66.76
2016-05-09T01:33:35.888Z,67.33
2016-05-09T01:34:35.907Z,67.81
2016-05-09T01:35:35.940Z,67.62
2016-05-09T01:37:35.976Z,67.43
2016-05-09T01:39:36.030Z,67.52
2016-05-09T01:40:36.032Z,68.19
2016-05-09T01:42:36.084Z,68.1
2016-05-09T01:43:35.945Z,68.96
2016-05-09T01:44:36.121Z,68.96
2016-05-09T01:45:36.139Z,68.38
2016-05-09T01:46:50.361Z,68.96
2016-05-09T01:47:36.192Z,68.48
2016-05-09T01:48:36.209Z,68.76
2016-05-09T01:49:36.244Z,69.43
2016-05-09T01:50:36.105Z,69.24
2016-05-09T01:51:36.281Z,69.53
2016-05-09T01:53:36.333Z,69.49
2016-05-09T01:54:36.350Z,69.31
2016-05-09T01:55:36.369Z,69.62
2016-05-09T01:56:36.388Z,69.68
2016-05-09T01:57:36.406Z,69.4
2016-05-09T01:58:36.440Z,69.87
2016-05-09T01:59:36.458Z,70.64
2016-05-09T02:00:36.476Z,70.64
2016-05-09T02:01:36.510Z,70.26
2016-05-09T02:02:50.701Z,70.26
2016-05-09T02:03:36.547Z,70.07
2016-05-09T02:04:36.566Z,70.36
2016-05-09T02:05:36.599Z,69.97
2016-05-09T02:06:36.601Z,70.45
2016-05-09T02:07:36.635Z,70.45
2016-05-09T02:11:36.725Z,70.92
2016-05-09T02:12:36.743Z,70.83
2016-05-09T02:13:36.761Z,71.21
2016-05-09T02:14:36.780Z,71.12
2016-05-09T02:15:36.814Z,71.21
2016-05-09T02:16:36.832Z,71.69
2016-05-09T02:17:36.850Z,71.78
2016-05-09T02:18:51.072Z,71.46
2016-05-09T02:19:36.902Z,71.41
2016-05-09T02:20:36.920Z,72.45
2016-05-09T02:21:36.939Z,72.36
2016-05-09T02:22:36.958Z,71.94
2016-05-09T02:24:37.001Z,72.61
2016-05-09T02:25:37.034Z,72.23
2016-05-09T02:28:37.090Z,72.51
2016-05-09T02:29:37.107Z,72.89
2016-05-09T02:30:37.126Z,72.61
2016-05-09T02:31:37.160Z,72.13
2016-05-09T02:32:37.179Z,72.13
2016-05-09T02:33:37.198Z,71.94
2016-05-09T02:34:51.403Z,71.21
2016-05-09T02:35:37.234Z,72.23
2016-05-09T02:36:37.267Z,71.88
2016-05-09T02:37:37.286Z,71.69
2016-05-09T02:38:37.304Z,71.12
2016-05-09T02:39:37.339Z,71.78
2016-05-09T02:40:37.356Z,71.59
2016-05-09T02:41:37.375Z,71.31
2016-05-09T02:42:37.393Z,71.88
2016-05-09T02:43:37.411Z,71.59
2016-05-09T02:44:37.430Z,71.78
2016-05-09T02:45:37.464Z,72.36
2016-05-09T02:46:37.482Z,72.61
2016-05-09T02:47:37.500Z,72.23
2016-05-09T02:48:37.534Z,71.75
2016-05-09T02:49:51.725Z,72.07
2016-05-09T02:50:37.571Z,71.84
2016-05-09T02:51:37.589Z,72.03
2016-05-09T02:52:37.451Z,71.98
2016-05-09T02:53:37.626Z,72.26
2016-05-09T02:54:37.659Z,72.23
2016-05-09T02:55:37.678Z,72.8
2016-05-09T02:56:37.696Z,72.99
2016-05-09T02:57:37.715Z,72.71
2016-05-09T02:58:37.748Z,72.71
2016-05-09T02:59:37.611Z,72.89
2016-05-09T03:00:37.785Z,72.61
2016-05-09T03:01:37.804Z,72.42
2016-05-09T03:02:37.837Z,72.13
2016-05-09T03:03:37.856Z,73.18
2016-05-09T03:04:37.873Z,73.08
2016-05-09T03:05:37.892Z,72.32
2016-05-09T03:06:37.911Z,72.89
2016-05-09T03:07:37.945Z,72.8
2016-05-09T03:08:37.947Z,72.42
2016-05-09T03:09:37.982Z,72.23
2016-05-09T03:10:38.000Z,72.61
2016-05-09T03:11:38.017Z,72.51
2016-05-09T03:12:38.052Z,72.89
2016-05-09T03:13:38.070Z,72.42
2016-05-09T03:14:38.089Z,72.42
2016-05-09T03:15:38.122Z,72.8
2016-05-09T03:16:38.125Z,72.99
2016-05-09T03:17:38.159Z,72.61
2016-05-09T03:18:38.021Z,72.61
2016-05-09T03:19:38.196Z,73.56
2016-05-09T03:20:38.214Z,73.28
2016-05-09T03:21:52.420Z,73.66
2016-05-09T03:22:38.110Z,73.28
2016-05-09T03:23:38.285Z,74.04
2016-05-09T03:24:38.302Z,74.32
2016-05-09T03:25:38.321Z,74.23
2016-05-09T03:26:38.183Z,74.71
2016-05-09T03:27:38.374Z,74.32
2016-05-09T03:28:38.392Z,74.23
2016-05-09T03:29:38.410Z,75.09
2016-05-09T03:30:38.429Z,74.8
2016-05-09T03:32:38.481Z,74.13
2016-05-09T03:33:38.498Z,74.13
2016-05-09T03:34:38.533Z,74.23
2016-05-09T03:35:38.551Z,74.61
2016-05-09T03:37:52.759Z,74.42
2016-05-09T03:38:38.623Z,74.32
2016-05-09T03:39:38.625Z,74.23
2016-05-09T03:40:38.643Z,74.52
2016-05-09T03:41:38.661Z,74.04
2016-05-09T03:42:38.711Z,74.42
2016-05-09T03:43:38.713Z,74.32
2016-05-09T03:44:38.576Z,74.42
2016-05-09T03:45:38.750Z,74.23
2016-05-09T03:46:38.784Z,73.94
2016-05-09T03:48:38.836Z,74.04
2016-05-09T03:49:38.855Z,74.32
2016-05-09T03:50:42.419Z,73.94
2016-05-09T03:51:38.907Z,74.42
2016-05-09T03:52:38.910Z,74.04
2016-05-09T03:53:53.115Z,73.66
2016-05-09T03:54:38.946Z,73.66
2016-05-09T03:55:38.980Z,73.28
2016-05-09T03:56:38.999Z,73.28
2016-05-09T03:57:39.016Z,73.47
2016-05-09T03:58:39.051Z,72.89
2016-05-09T03:59:39.053Z,72.64
2016-05-09T04:01:39.105Z,72.51
2016-05-09T04:02:38.968Z,73.08
2016-05-09T04:03:39.142Z,72.71
2016-05-09T04:04:39.176Z,72.64
2016-05-09T04:05:39.194Z,72.89
2016-05-09T04:06:39.213Z,72.89
2016-05-09T04:07:39.231Z,72.83
2016-05-09T04:08:39.249Z,73.03
2016-05-09T04:09:53.455Z,72.93
2016-05-09T04:10:39.301Z,72.83
2016-05-09T04:11:39.319Z,73.22
2016-05-09T04:12:39.339Z,72.83
2016-05-09T04:13:39.748Z,72.55
2016-05-09T04:14:39.390Z,72.36
2016-05-09T04:15:39.408Z,71.98
2016-05-09T04:16:39.427Z,72.74
2016-05-09T04:17:39.305Z,72.17
2016-05-09T04:18:39.480Z,72.55
2016-05-09T04:19:39.498Z,71.98
2016-05-09T04:20:39.516Z,71.78
2016-05-09T04:21:39.533Z,71.69
2016-05-09T04:22:39.568Z,71.41
2016-05-09T04:23:39.586Z,71.59
2016-05-09T04:24:53.792Z,71.69
2016-05-09T04:25:39.624Z,71.59
2016-05-09T04:26:39.657Z,71.41
2016-05-09T04:27:39.675Z,71.88
2016-05-09T04:28:39.975Z,71.21
2016-05-09T04:29:39.712Z,71.59
2016-05-09T04:30:39.730Z,71.41
2016-05-09T04:31:39.765Z,70.67
2016-05-09T04:32:39.782Z,71.06
2016-05-09T04:34:39.835Z,70.96
2016-05-09T04:35:39.681Z,70.48
2016-05-09T04:36:39.871Z,69.91
2016-05-09T04:37:39.734Z,69.91
2016-05-09T04:38:39.909Z,69.43
2016-05-09T04:39:39.786Z,69.72
2016-05-09T04:40:39.960Z,69.91
2016-05-09T04:41:39.978Z,68.96
2016-05-09T04:42:39.997Z,69.18
2016-05-09T04:43:40.437Z,68.51
2016-05-09T04:44:40.050Z,68.41
2016-05-09T04:45:39.912Z,68.9
2016-05-09T04:46:40.086Z,68.9
2016-05-09T04:47:40.119Z,68.99
2016-05-09T04:48:40.138Z,68.99
2016-05-09T04:51:40.209Z,62.52
2016-05-09T04:52:40.227Z,57.03
2016-05-09T04:53:40.245Z,52.53
2016-05-09T04:54:40.279Z,49.96
2016-05-09T04:55:40.298Z,46.93
2016-05-09T04:56:54.503Z,44.86
2016-05-09T04:57:40.335Z,43.44
2016-05-09T04:58:40.883Z,41.05
2016-05-09T04:59:40.761Z,40.03
2016-05-09T05:00:40.420Z,38.6
2016-05-09T05:01:40.455Z,36.59
2016-05-09T05:02:40.473Z,34.62
2016-05-09T05:03:40.491Z,34.05
2016-05-09T05:05:40.543Z,32.34
2016-05-09T05:06:40.562Z,31.29
2016-05-09T05:07:40.596Z,30.15
2016-05-09T05:08:40.629Z,30.15
2016-05-09T05:09:40.492Z,30.41
2016-05-09T05:10:40.666Z,29.66
2016-05-09T05:11:40.543Z,28.63
2016-05-09T05:12:54.906Z,27.57
2016-05-09T05:13:41.003Z,26.43
2016-05-09T05:14:40.786Z,25.76
2016-05-09T05:15:40.804Z,25.86
2016-05-09T05:16:40.838Z,25.47
2016-05-09T05:17:40.873Z,25.75
2016-05-09T05:19:40.925Z,25.09
2016-05-09T05:20:40.958Z,24.72
2016-05-09T05:21:40.977Z,23.85
2016-05-09T05:22:41.010Z,24.13
2016-05-09T05:23:41.030Z,23.45
2016-05-09T05:24:41.064Z,23.28
2016-05-09T05:25:41.097Z,23.27
2016-05-09T05:26:41.130Z,22.61
2016-05-09T05:27:41.149Z,23.18
2016-05-09T05:28:55.371Z,22.41
2016-05-09T05:29:41.217Z,22.91
2016-05-09T05:30:41.252Z,23.27
2016-05-09T05:31:41.113Z,23.94
2016-05-09T05:32:41.303Z,23.94
2016-05-09T05:33:41.337Z,24.51
2016-05-09T05:34:41.371Z,23.84
2016-05-09T05:35:41.390Z,23.46
2016-05-09T05:36:41.424Z,23.75
2016-05-09T05:37:41.457Z,24.52
2016-05-09T05:38:41.491Z,23.94
2016-05-09T05:39:41.509Z,22.69
2016-05-09T05:41:41.578Z,21.56
2016-05-09T05:42:41.612Z,23.19
2016-05-09T05:43:41.645Z,22.79
2016-05-09T05:44:55.851Z,22.5
2016-05-09T05:45:41.698Z,22.72
2016-05-09T05:46:41.732Z,22.6
2016-05-09T05:47:41.765Z,21.35
2016-05-09T05:48:41.800Z,20.58
2016-05-09T05:49:41.677Z,20.22
2016-05-09T05:50:41.867Z,20.61
2016-05-09T05:51:41.900Z,23.49
2016-05-09T05:52:41.919Z,23.55
2016-05-09T05:53:41.954Z,24.22
2016-05-09T05:54:41.988Z,24.22
2016-05-09T05:55:42.022Z,23.83
2016-05-09T05:56:42.055Z,23.74
2016-05-09T05:57:42.089Z,22.51
2016-05-09T05:58:42.123Z,21.73
2016-05-09T05:59:56.329Z,22.12
2016-05-09T06:00:42.218Z,20.97
2016-05-09T06:01:42.297Z,20.03
2016-05-09T06:02:42.593Z,19.55
2016-05-09T06:03:42.452Z,18.4
2016-05-09T06:04:42.530Z,17.53
2016-05-09T06:05:42.580Z,18.12
2016-05-09T06:06:42.458Z,18.39
2016-05-09T06:07:42.522Z,17.63
2016-05-09T06:09:42.763Z,19.06
2016-05-09T06:10:42.802Z,20.5
2016-05-09T06:11:42.842Z,21.78
2016-05-09T06:12:42.882Z,23.66
2016-05-09T06:13:42.927Z,24.02
2016-05-09T06:14:42.966Z,23.84
2016-05-09T06:15:43.002Z,25.1
2016-05-09T06:16:43.022Z,24.97
2016-05-09T06:17:43.074Z,25.18
2016-05-09T06:18:43.095Z,24.3
2016-05-09T06:19:43.130Z,24.6
2016-05-09T06:20:43.164Z,23.63
2016-05-09T06:21:43.199Z,23.16
2016-05-09T06:22:43.077Z,23.38
2016-05-09T06:23:43.268Z,23.46
2016-05-09T06:24:43.147Z,23.85
2016-05-09T06:25:43.337Z,21.73
2016-05-09T06:26:43.372Z,21.09
2016-05-09T06:27:43.406Z,21.37
2016-05-09T06:28:43.439Z,23.6
2016-05-09T06:29:43.473Z,25.1
2016-05-09T06:30:43.508Z,25.67
2016-05-09T06:31:57.728Z,24.58
2016-05-09T06:32:43.574Z,23.84
2016-05-09T06:33:43.593Z,23.63
2016-05-09T06:35:43.505Z,23.85
2016-05-09T06:36:43.695Z,22.59
2016-05-09T06:37:43.744Z,21.84
2016-05-09T06:38:43.763Z,21.55
2016-05-09T06:39:43.813Z,21.46
2016-05-09T06:40:43.846Z,19.63
2016-05-09T06:41:48.490Z,18.97
2016-05-09T06:42:43.899Z,18.79
2016-05-09T06:43:44.104Z,18.59
2016-05-09T06:44:43.983Z,17.54
2016-05-09T06:45:44.001Z,15.89
2016-05-09T06:46:44.051Z,15.52
2016-05-09T06:47:58.256Z,15.73
2016-05-09T06:48:44.118Z,16.57
2016-05-09T06:49:44.152Z,18.31
2016-05-09T06:50:44.170Z,18.68
2016-05-09T06:51:44.220Z,20.9
2016-05-09T06:52:44.253Z,21
2016-05-09T06:53:44.287Z,22.33
2016-05-09T06:54:44.322Z,22.03
2016-05-09T06:55:44.200Z,20.96
2016-05-09T06:56:44.234Z,20.96
2016-05-09T06:57:44.267Z,21.08
2016-05-09T06:58:44.473Z,22.8
2016-05-09T06:59:44.507Z,22.02
2016-05-09T07:00:44.525Z,19.63
2016-05-09T07:01:44.403Z,19.27
2016-05-09T07:02:44.593Z,20.82
2016-05-09T07:03:58.814Z,18.57
2016-05-09T07:04:44.661Z,18.4
2016-05-09T07:05:44.694Z,17.72
2016-05-09T07:06:44.745Z,17.53
2016-05-09T07:07:44.763Z,17.34
2016-05-09T07:08:44.813Z,17.92
2016-05-09T07:09:44.846Z,18.51
2016-05-09T07:10:44.880Z,18.76
2016-05-09T07:11:44.914Z,20.71
2016-05-09T07:12:44.949Z,21.35
2016-05-09T07:13:45.295Z,19.82
2016-05-09T07:14:45.016Z,20.14
2016-05-09T07:15:44.894Z,19.35
2016-05-09T07:16:45.099Z,18.97
2016-05-09T07:17:45.118Z,19.57
2016-05-09T07:18:45.152Z,20.33
2016-05-09T07:19:59.373Z,20.3
2016-05-09T07:20:45.063Z,20.1
2016-05-09T07:22:45.303Z,18.48
2016-05-09T07:23:45.337Z,17.72
2016-05-09T07:24:45.371Z,17.72
2016-05-09T07:25:45.406Z,18.88
2016-05-09T07:26:45.454Z,20.21
2016-05-09T07:28:45.367Z,17.63
2016-05-09T07:30:45.590Z,18.29
2016-05-09T07:31:45.624Z,17.82
2016-05-09T07:32:45.659Z,16.56
2016-05-09T07:33:45.536Z,17.05
2016-05-09T07:34:59.898Z,15.88
2016-05-09T07:35:45.776Z,15.61
2016-05-09T07:36:45.794Z,16.39
2016-05-09T07:37:45.828Z,17.03
2016-05-09T07:38:45.878Z,18.29
2016-05-09T07:39:45.896Z,18.56
2016-05-09T07:40:45.930Z,18.19
2016-05-09T07:41:45.980Z,17.51
2016-05-09T07:42:46.013Z,16.44
2016-05-09T07:43:46.047Z,16.36
2016-05-09T07:45:45.959Z,19.26
2016-05-09T07:46:46.149Z,20.5
2016-05-09T07:47:46.183Z,20.28
2016-05-09T07:48:46.217Z,19.91
2016-05-09T07:49:46.252Z,19.62
2016-05-09T07:50:46.316Z,20.31
2016-05-09T07:51:46.324Z,22.61
2016-05-09T07:52:46.358Z,22.69
2016-05-09T07:53:46.407Z,21.12
2016-05-09T07:54:46.452Z,19.52
2016-05-09T07:55:46.469Z,20.01
2016-05-09T07:56:46.363Z,20.96
2016-05-09T07:57:46.552Z,20.86
2016-05-09T07:58:46.603Z,20.58
2016-05-09T07:59:46.605Z,19.62
2016-05-09T08:00:46.482Z,20.29
2016-05-09T08:01:46.532Z,20.29
2016-05-09T08:02:46.722Z,20.77
2016-05-09T08:03:46.756Z,21.05
2016-05-09T08:04:47.243Z,19.21
2016-05-09T08:05:54.605Z,19.63
2016-05-09T08:07:06.654Z,18.36
2016-05-09T08:07:54.110Z,17.71
2016-05-09T08:08:56.223Z,17.71
2016-05-09T08:10:00.945Z,17.52
2016-05-09T08:10:47.010Z,17.7
2016-05-09T08:11:53.403Z,17.59
2016-05-09T08:12:46.921Z,17.32
2016-05-09T08:13:47.189Z,16.14
2016-05-09T08:14:47.145Z,16.45
2016-05-09T08:15:47.179Z,16.64
2016-05-09T08:16:47.214Z,15.58
2016-05-09T08:17:47.263Z,16.16
2016-05-09T08:18:47.297Z,15.96
2016-05-09T08:19:47.314Z,17.24
2016-05-09T08:20:47.365Z,17.68
2016-05-09T08:21:47.398Z,18.37
2016-05-09T08:23:01.619Z,18.27
2016-05-09T08:23:47.467Z,17.68
2016-05-09T08:24:47.501Z,17.51
2016-05-09T08:25:47.550Z,18.58
2016-05-09T08:26:47.584Z,19.23
2016-05-09T08:27:47.618Z,19.41
2016-05-09T08:28:47.652Z,19.6
2016-05-09T08:29:47.530Z,19.23
2016-05-09T08:30:47.719Z,20
2016-05-09T08:31:47.597Z,18.82
2016-05-09T08:32:47.803Z,17.59
2016-05-09T08:33:47.680Z,16.44
2016-05-09T08:34:47.871Z,16.74
2016-05-09T08:35:47.905Z,16.33
2016-05-09T08:36:47.939Z,16.53
2016-05-09T08:37:47.988Z,15.28
2016-05-09T08:39:02.193Z,15
2016-05-09T08:39:48.056Z,14.8
2016-05-09T08:40:48.091Z,14.32
2016-05-09T08:41:47.968Z,14.72
2016-05-09T08:42:48.159Z,14.71
2016-05-09T08:43:48.661Z,15.21
2016-05-09T08:45:48.120Z,14.42
2016-05-09T08:46:48.153Z,16.66
2016-05-09T08:47:48.343Z,17.39
2016-05-09T08:48:48.393Z,17.97
2016-05-09T08:49:48.427Z,15.83
2016-05-09T08:51:48.511Z,17.58
2016-05-09T08:52:48.529Z,16.42
2016-05-09T08:53:48.563Z,15.96
2016-05-09T08:55:02.784Z,14.59
2016-05-09T08:55:48.631Z,14.72
2016-05-09T08:56:48.524Z,15.67
2016-05-09T08:57:48.714Z,15.76
2016-05-09T08:58:48.608Z,16.34
2016-05-09T08:59:48.797Z,17
2016-05-09T09:00:48.816Z,17.38
2016-05-09T09:01:48.850Z,17.68
2016-05-09T09:02:48.899Z,17.58
2016-05-09T09:03:48.777Z,17.1
2016-05-09T09:06:48.879Z,15.2
2016-05-09T09:07:49.084Z,14.9
2016-05-09T09:08:49.119Z,15.69
2016-05-09T09:10:03.356Z,16.93
2016-05-09T09:11:49.251Z,17.68
2016-05-09T09:12:49.271Z,16.34
2016-05-09T09:13:49.163Z,16.34
2016-05-09T09:14:49.338Z,16.44
2016-05-09T09:15:49.373Z,16.23
2016-05-09T09:16:49.421Z,15.95
2016-05-09T09:17:49.456Z,15.77
2016-05-09T09:18:49.474Z,14.03
2016-05-09T09:19:49.523Z,13.76
2016-05-09T09:21:49.606Z,14.52
2016-05-09T09:22:49.625Z,15.19
2016-05-09T09:24:49.709Z,15.47
2016-05-09T09:25:49.742Z,15.09
2016-05-09T09:26:49.620Z,14.04
2016-05-09T09:27:49.811Z,14.52
2016-05-09T09:28:49.703Z,15.31
2016-05-09T09:29:49.894Z,15.87
2016-05-09T09:30:49.771Z,17.79
2016-05-09T09:32:49.996Z,16.83
2016-05-09T09:34:50.080Z,19.78
2016-05-09T09:35:49.957Z,18.91
2016-05-09T09:36:50.147Z,17.77
2016-05-09T09:37:50.197Z,18.37
2016-05-09T09:38:50.215Z,17.58
2016-05-09T09:39:50.265Z,16.91
2016-05-09T09:40:50.299Z,17.02
2016-05-09T09:42:04.520Z,15.95
2016-05-09T09:42:50.366Z,16.27
2016-05-09T09:43:50.634Z,15.58
2016-05-09T09:44:50.451Z,15.09
2016-05-09T09:45:50.484Z,15.29
2016-05-09T09:46:50.517Z,15.09
2016-05-09T09:47:50.552Z,15.58
2016-05-09T09:48:50.586Z,15.48
2016-05-09T09:49:50.635Z,16.45
2016-05-09T09:50:50.669Z,17.79
2016-05-09T09:51:50.703Z,19.6
2016-05-09T09:52:50.737Z,19.31
2016-05-09T09:53:50.771Z,19.31
2016-05-09T09:54:50.806Z,19.14
2016-05-09T09:55:50.855Z,19.32
2016-05-09T09:56:50.873Z,18.46
2016-05-09T09:58:05.110Z,17.4
2016-05-09T09:58:50.972Z,18.1
2016-05-09T09:59:50.990Z,20.39
2016-05-09T10:00:51.039Z,20.65
2016-05-09T10:01:51.059Z,19.29
2016-05-09T10:02:51.108Z,17.97
2016-05-09T10:03:51.127Z,18.19
2016-05-09T10:04:51.020Z,18.37
2016-05-09T10:05:51.210Z,19.34
2016-05-09T10:06:51.087Z,20.29
2016-05-09T10:07:51.277Z,19.91
2016-05-09T10:08:51.311Z,19.42
2016-05-09T10:09:51.345Z,19.13
2016-05-09T10:10:51.379Z,18.82
2016-05-09T10:11:51.257Z,19.13
2016-05-09T10:12:51.447Z,20.76
2016-05-09T10:14:05.669Z,20.83
2016-05-09T10:14:51.515Z,20.07
2016-05-09T10:15:51.393Z,18.35
2016-05-09T10:16:51.599Z,17.68
2016-05-09T10:17:51.648Z,17.1
2016-05-09T10:18:51.667Z,17.7
2016-05-09T10:19:51.701Z,16.81
2016-05-09T10:21:51.768Z,18.55
2016-05-09T10:22:51.803Z,18.35
2016-05-09T10:23:51.851Z,17.79
2016-05-09T10:24:51.886Z,18.27
2016-05-09T10:25:51.764Z,18.55
2016-05-09T10:27:51.987Z,17.97
2016-05-09T10:28:52.022Z,17.97
2016-05-09T10:30:06.243Z,18.55
2016-05-09T10:30:52.089Z,18.35
2016-05-09T10:31:52.123Z,18.35
2016-05-09T10:32:52.172Z,19.23
2016-05-09T10:33:52.192Z,19.23
2016-05-09T10:34:52.241Z,18.46
2016-05-09T10:35:52.275Z,17.69
2016-05-09T10:37:52.343Z,18.92
2016-05-09T10:38:52.376Z,18.44
2016-05-09T10:40:52.460Z,17.58
2016-05-09T10:41:52.494Z,17.57
2016-05-09T10:42:52.528Z,17.76
2016-05-09T10:43:52.562Z,16.9
2016-05-09T10:45:06.783Z,17
2016-05-09T10:45:52.629Z,18.34
2016-05-09T10:46:52.695Z,19.68
2016-05-09T10:47:52.698Z,19.76
2016-05-09T10:48:52.748Z,19
2016-05-09T10:49:52.765Z,19.29
2016-05-09T10:50:52.815Z,20.34
2016-05-09T10:51:52.848Z,20.23
2016-05-09T10:52:52.883Z,20.03
2016-05-09T10:53:52.917Z,20.99
2016-05-09T10:54:52.951Z,21.94
2016-05-09T10:56:53.019Z,22.9
2016-05-09T10:57:53.053Z,23.18
2016-05-09T10:58:53.102Z,23.19
2016-05-09T10:59:53.698Z,23.09
2016-05-09T11:00:53.170Z,23.18
2016-05-09T11:01:53.203Z,23.46
2016-05-09T11:02:53.238Z,24.23
2016-05-09T11:03:53.272Z,23.95
2016-05-09T11:04:53.305Z,24.44
2016-05-09T11:05:53.339Z,22.61
2016-05-09T11:06:53.389Z,22.22
2016-05-09T11:07:53.424Z,22.61
2016-05-09T11:09:53.475Z,22.9
2016-05-09T11:10:53.368Z,22.8
2016-05-09T11:11:53.402Z,23.48
2016-05-09T11:12:53.594Z,22.9
2016-05-09T11:13:53.627Z,23.85
2016-05-09T11:14:53.833Z,23.57
2016-05-09T11:15:53.679Z,24.13
2016-05-09T11:17:07.900Z,23.75
2016-05-09T11:17:53.746Z,23.75
2016-05-09T11:18:53.796Z,23.85
2016-05-09T11:19:53.815Z,23.83
2016-05-09T11:21:53.882Z,24.13
2016-05-09T11:22:53.917Z,24.43
2016-05-09T11:23:53.951Z,23.85
2016-05-09T11:25:54.018Z,24.04
2016-05-09T11:26:54.053Z,23.83
2016-05-09T11:28:54.120Z,24.22
2016-05-09T11:29:54.153Z,24.03
2016-05-09T11:30:54.189Z,24.61
2016-05-09T11:31:54.269Z,24.23
2016-05-09T11:33:08.444Z,23.86
2016-05-09T11:33:54.289Z,24.62
2016-05-09T11:34:54.324Z,24.15
2016-05-09T11:36:54.220Z,23.76
2016-05-09T11:37:54.411Z,23.95
2016-05-09T11:38:54.444Z,23.75
2016-05-09T11:39:54.478Z,23.75
2016-05-09T11:40:54.513Z,24.23
2016-05-09T11:41:54.546Z,24.04
2016-05-09T11:42:54.564Z,23.85
2016-05-09T11:43:54.599Z,23.94
2016-05-09T11:44:54.491Z,24.52
2016-05-09T11:45:54.666Z,24.51
2016-05-09T11:46:54.699Z,24.51
2016-05-09T11:47:54.735Z,24.8
2016-05-09T11:49:08.940Z,24.8
2016-05-09T11:49:54.786Z,24.98
2016-05-09T11:50:54.835Z,26.05
2016-05-09T11:51:54.854Z,26.06
2016-05-09T11:52:54.716Z,25.59
2016-05-09T11:53:54.923Z,24.82
2016-05-09T11:54:54.940Z,23.86
2016-05-09T11:55:54.958Z,23.76
2016-05-09T11:56:54.992Z,23.75
2016-05-09T11:57:55.027Z,24.9
2016-05-09T11:59:54.938Z,24.79
2016-05-09T12:00:55.128Z,24.98
2016-05-09T12:01:54.990Z,25.08
2016-05-09T12:02:55.181Z,24.79
2016-05-09T12:03:55.215Z,24.98
2016-05-09T12:05:09.405Z,25.18
2016-05-09T12:05:55.266Z,24.71
2016-05-09T12:06:55.285Z,25.67
2016-05-09T12:07:55.320Z,25.1
2016-05-09T12:08:55.353Z,24.62
2016-05-09T12:09:55.386Z,23.75
2016-05-09T12:10:55.405Z,24.04
2016-05-09T12:11:55.423Z,24.23
2016-05-09T12:13:55.491Z,24.13
2016-05-09T12:14:55.385Z,24.72
2016-05-09T12:15:55.543Z,24.04
2016-05-09T12:16:55.577Z,23.85
2016-05-09T12:17:55.612Z,23.57
2016-05-09T12:18:55.630Z,23.86
2016-05-09T12:20:09.835Z,23.76
2016-05-09T12:20:55.541Z,23.85
2016-05-09T12:21:55.576Z,25.01
2016-05-09T12:22:55.594Z,25.1
2016-05-09T12:23:55.784Z,24.91
2016-05-09T12:24:55.801Z,24.72
2016-05-09T12:25:55.836Z,24.23
2016-05-09T12:26:55.854Z,24.52
2016-05-09T12:27:55.889Z,24.43
2016-05-09T12:28:55.923Z,24.91
2016-05-09T12:29:55.940Z,24.62
2016-05-09T12:30:55.975Z,24.24
2016-05-09T12:31:56.009Z,23.94
2016-05-09T12:32:56.028Z,23.85
2016-05-09T12:33:56.061Z,23.85
2016-05-09T12:34:56.079Z,24.12
2016-05-09T12:35:56.113Z,24.8
2016-05-09T12:36:55.991Z,24.8
2016-05-09T12:37:56.166Z,24.71
2016-05-09T12:38:56.199Z,24.99
2016-05-09T12:39:56.233Z,25.1
2016-05-09T12:40:56.252Z,24.43
2016-05-09T12:41:56.270Z,24.13
2016-05-09T12:42:56.304Z,24.71
2016-05-09T12:43:56.337Z,24.8
2016-05-09T12:44:57.075Z,24.99
2016-05-09T12:45:56.391Z,24.9
2016-05-09T12:46:56.424Z,24.8
2016-05-09T12:47:56.443Z,24.9
2016-05-09T12:48:56.476Z,23.93
2016-05-09T12:49:56.511Z,24.71
2016-05-09T12:50:59.279Z,24.22
2016-05-09T12:52:10.735Z,24.5
2016-05-09T12:52:56.581Z,24.11
2016-05-09T12:53:56.614Z,23.82
2016-05-09T12:54:56.649Z,24.12
2016-05-09T12:55:56.511Z,24.69
2016-05-09T12:56:56.685Z,24.71
2016-05-09T12:57:56.720Z,24.61
2016-05-09T12:59:56.771Z,25.19
2016-05-09T13:00:56.806Z,24.41
2016-05-09T13:01:56.840Z,24.12
2016-05-09T13:02:56.701Z,23.54
2016-05-09T13:03:56.892Z,24.12
2016-05-09T13:04:56.925Z,23.74
2016-05-09T13:05:56.975Z,23.83
2016-05-09T13:06:56.978Z,24.12
2016-05-09T13:08:11.184Z,24.6
2016-05-09T13:08:57.030Z,24.12
2016-05-09T13:09:57.048Z,24.51
2016-05-09T13:10:56.925Z,24.12
2016-05-09T13:11:57.116Z,24.6
2016-05-09T13:12:57.135Z,24.02
2016-05-09T13:13:57.169Z,24.4
2016-05-09T13:14:57.187Z,24.5
2016-05-09T13:15:57.221Z,24.03
2016-05-09T13:17:57.273Z,24.4
2016-05-09T13:18:57.136Z,25.08
2016-05-09T13:19:57.325Z,25.65
2016-05-09T13:20:57.360Z,25.26
2016-05-09T13:21:57.393Z,26.62
2016-05-09T13:22:57.255Z,25.07
2016-05-09T13:24:11.617Z,24.02
2016-05-09T13:24:57.464Z,24.69
2016-05-09T13:25:57.498Z,24.21
2016-05-09T13:26:57.360Z,23.74
2016-05-09T13:27:57.550Z,23.44
2016-05-09T13:28:57.568Z,23.16
2016-05-09T13:29:57.446Z,23.25
2016-05-09T13:30:57.637Z,22.77
2016-05-09T13:31:57.654Z,23.24
2016-05-09T13:33:57.550Z,23.24
2016-05-09T13:34:57.741Z,22.85
2016-05-09T13:36:03.400Z,23.24
2016-05-09T13:37:57.811Z,23.14
2016-05-09T13:38:57.845Z,22.17
2016-05-09T13:40:12.050Z,22.66
2016-05-09T13:40:57.897Z,22.19
2016-05-09T13:41:57.931Z,22.28
2016-05-09T13:42:57.950Z,22.19
2016-05-09T13:43:57.827Z,22
2016-05-09T13:44:58.017Z,22.38
2016-05-09T13:45:58.036Z,22.57
2016-05-09T13:47:58.104Z,22.58
2016-05-09T13:48:58.137Z,22.58
2016-05-09T13:49:58.140Z,23.06
2016-05-09T13:50:58.018Z,23.16
2016-05-09T13:51:58.208Z,23.46
2016-05-09T13:52:58.227Z,22.88
2016-05-09T13:53:58.260Z,23.06